Skip to main content.
Our real time weather data display below is updated continuously via our 24/7 live data feed.
 TIME   TEMPERATURE   WINDSPEED   DIRECTION   HUMIDITY   BAROMETER   RAINFALL 
0:05 21.0°C (69.8°F) 11.1 kmh (6.9 mph) SSE 88% 1020.0hPa (30.12 inHg) 0.0mm (0.00 in.)
23:05 21.0°C (69.8 °F) 9.3 kmh (5.8 mph) SSE 88% 1021.0hPa (30.15 inHg) 0.0mm (0.00 in.)
22:05 21.0°C (69.8 °F) 9.3 kmh (5.8 mph) S 88% 1021.0hPa (30.15 inHg) 0.0mm (0.00 in.)
21:05 21.0°C (69.8 °F) 9.3 kmh (5.8 mph) S 88% 1021.0hPa (30.15 inHg) 0.0mm (0.00 in.)
20:05 21.0°C (69.8 °F) 11.1 kmh (6.9 mph) S 82% 1021.0hPa (30.15 inHg) 0.0mm (0.00 in.)
19:05 21.0°C (69.8 °F) 9.3 kmh (5.8 mph) S 77% 1021.0hPa (30.15 inHg) 0.0mm (0.00 in.)
18:05 22.0°C (71.6 °F) 14.8 kmh (9.2 mph) SSW 73% 1021.0hPa (30.15 inHg) 0.0mm (0.00 in.)
17:05 23.0°C (73.4 °F) 16.7 kmh (10.4 mph) S 64% 1021.0hPa (30.15 inHg) 0.0mm (0.00 in.)
16:05 23.0°C (73.4 °F) 18.5 kmh (11.5 mph) S 68% 1022.0hPa (30.18 inHg) 0.0mm (0.00 in.)
15:05 24.0°C (75.2 °F) 20.4 kmh (12.7 mph) S 60% 1022.0hPa (30.18 inHg) 0.0mm (0.00 in.)
14:05 23.0°C (73.4 °F) 18.5 kmh (11.5 mph) S 68% 1023.0hPa (30.21 inHg) 0.0mm (0.00 in.)
13:05 23.0°C (73.4 °F) 22.2 kmh (13.8 mph) S 64% 1024.0hPa (30.24 inHg) 0.0mm (0.00 in.)
12:05 23.0°C (73.4 °F) 16.7 kmh (10.4 mph) S 64% 1024.0hPa (30.24 inHg) 0.0mm (0.00 in.)
11:05 23.0°C (73.4 °F) 16.7 kmh (10.4 mph) SSE 64% 1024.0hPa (30.24 inHg) 0.0mm (0.00 in.)
10:05 22.0°C (71.6 °F) 11.1 kmh (6.9 mph) SSE 73% 1024.0hPa (30.24 inHg) 0.0mm (0.00 in.)
9:05 19.0°C (66.2 °F) 1.9 kmh (1.2 mph) NNW 88% 1024.0hPa (30.24 inHg) 0.0mm (0.00 in.)
8:05 15.0°C (59.0 °F) 1.9 kmh (1.2 mph) NNW 100% 1024.0hPa (30.24 inHg) 0.0mm (0.00 in.)
7:05 15.0°C (59.0 °F) 0.0 kmh (0.0 mph) S 93% 1024.0hPa (30.24 inHg) 0.0mm (0.00 in.)
6:05 15.0°C (59.0 °F) 7.4 kmh (4.6 mph) S 93% 1024.0hPa (30.24 inHg) 0.0mm (0.00 in.)
5:05 16.0°C (60.8 °F) 9.3 kmh (5.8 mph) S 93% 1024.0hPa (30.24 inHg) 0.0mm (0.00 in.)
4:05 15.0°C (59.0 °F) 7.4 kmh (4.6 mph) S 100% 1025.1hPa (30.27 inHg) 0.0mm (0.00 in.)
3:05 16.0°C (60.8 °F) 5.6 kmh (3.5 mph) S 93% 1025.1hPa (30.27 inHg) 0.0mm (0.00 in.)
2:05 16.0°C (60.8 °F) 3.7 kmh (2.3 mph) S 93% 1026.1hPa (30.30 inHg) 0.0mm (0.00 in.)
1:05 16.0°C (60.8 °F) 3.7 kmh (2.3 mph) S 93% 1026.1hPa (30.30 inHg) 0.0mm (0.00 in.)